createdAt,value
2019-03-29T00:02:02.095Z,2.15
2019-03-29T00:04:28.638Z,2.19
2019-03-29T00:06:55.297Z,2.26
2019-03-29T00:09:21.862Z,2.43
2019-03-29T00:11:48.544Z,2.38
2019-03-29T00:14:15.938Z,2.50
2019-03-29T00:16:43.167Z,2.31
2019-03-29T00:19:09.802Z,2.39
2019-03-29T00:21:36.638Z,2.28
2019-03-29T00:24:07.112Z,2.08
2019-03-29T00:26:31.838Z,2.10
2019-03-29T00:28:58.376Z,2.14
2019-03-29T00:31:25.133Z,2.17
2019-03-29T00:33:51.795Z,2.19
2019-03-29T00:36:18.590Z,2.23
2019-03-29T00:38:45.176Z,2.19
2019-03-29T00:41:11.743Z,1.93
2019-03-29T00:43:38.337Z,2.01
2019-03-29T00:46:04.951Z,2.05
2019-03-29T00:48:31.527Z,1.96
2019-03-29T00:50:59.007Z,1.83
2019-03-29T00:53:26.089Z,1.59
2019-03-29T00:55:52.662Z,1.75
2019-03-29T00:58:19.242Z,1.96
2019-03-29T01:00:46.139Z,1.67
2019-03-29T01:03:12.797Z,1.75
2019-03-29T01:05:39.547Z,1.85
2019-03-29T01:08:08.274Z,1.89
2019-03-29T01:10:36.967Z,1.84
2019-03-29T01:13:03.657Z,1.74
2019-03-29T01:15:30.242Z,1.72
2019-03-29T01:17:57.114Z,1.55
2019-03-29T01:20:23.787Z,1.29
2019-03-29T01:22:50.424Z,1.23
2019-03-29T01:25:17.050Z,1.41
2019-03-29T01:27:43.660Z,1.66
2019-03-29T01:30:12.416Z,1.69
2019-03-29T01:32:39.030Z,1.65
2019-03-29T01:35:06.939Z,1.60
2019-03-29T01:37:33.893Z,1.59
2019-03-29T01:40:00.434Z,1.61
2019-03-29T01:42:27.027Z,1.50
2019-03-29T01:44:54.771Z,1.55
2019-03-29T01:47:21.402Z,1.64
2019-03-29T01:49:48.004Z,1.63
2019-03-29T01:52:14.657Z,1.62
2019-03-29T01:54:41.302Z,1.58
2019-03-29T01:57:07.925Z,1.58
2019-03-29T01:59:34.641Z,1.63
2019-03-29T02:02:01.470Z,1.60
2019-03-29T02:04:28.039Z,1.51
2019-03-29T02:06:54.732Z,1.26
2019-03-29T02:09:21.339Z,1.31
2019-03-29T02:11:48.124Z,1.51
2019-03-29T02:14:14.784Z,1.59
2019-03-29T02:16:42.763Z,1.61
2019-03-29T02:19:09.334Z,1.66
2019-03-29T02:21:36.214Z,1.48
2019-03-29T02:24:04.185Z,1.55
2019-03-29T02:26:30.752Z,1.54
2019-03-29T02:28:57.341Z,1.49
2019-03-29T02:31:26.079Z,1.44
2019-03-29T02:33:52.485Z,1.09
2019-03-29T02:36:19.063Z,1.22
2019-03-29T02:38:54.987Z,1.51
2019-03-29T02:41:15.581Z,1.56
2019-03-29T02:43:42.507Z,1.40
2019-03-29T02:46:09.196Z,1.56
2019-03-29T02:48:36.310Z,1.64
2019-03-29T02:51:04.379Z,1.83
2019-03-29T02:53:31.355Z,1.95
2019-03-29T02:55:57.974Z,1.99
2019-03-29T02:58:24.658Z,2.02
2019-03-29T03:00:51.258Z,2.04
2019-03-29T03:03:18.003Z,2.21
2019-03-29T03:05:44.708Z,2.32
2019-03-29T03:08:11.535Z,2.24
2019-03-29T03:10:38.221Z,2.37
2019-03-29T03:13:04.922Z,2.73
2019-03-29T03:15:31.550Z,2.20
2019-03-29T03:17:58.232Z,1.99
2019-03-29T03:20:24.906Z,1.77
2019-03-29T03:22:51.620Z,1.82
2019-03-29T03:25:18.255Z,1.93
2019-03-29T03:27:44.800Z,2.11
2019-03-29T03:30:12.410Z,2.13
2019-03-29T03:32:39.258Z,2.21
2019-03-29T03:35:08.586Z,2.16
2019-03-29T03:37:36.724Z,2.10
2019-03-29T03:40:07.423Z,2.04
2019-03-29T03:42:34.167Z,2.10
2019-03-29T03:45:00.819Z,2.07
2019-03-29T03:47:27.869Z,2.20
2019-03-29T03:49:54.510Z,2.17
2019-03-29T03:52:21.448Z,2.10
2019-03-29T03:54:48.320Z,1.94
2019-03-29T03:57:18.022Z,1.92
2019-03-29T03:59:45.096Z,2.08
2019-03-29T04:02:11.792Z,1.77
2019-03-29T04:04:38.637Z,1.95
2019-03-29T04:07:05.589Z,2.01
2019-03-29T04:09:48.411Z,2.03
2019-03-29T04:12:00.943Z,1.94
2019-03-29T04:14:27.527Z,1.87
2019-03-29T04:16:54.128Z,1.88
2019-03-29T04:19:20.822Z,1.86
2019-03-29T04:21:48.677Z,1.71
2019-03-29T04:24:15.360Z,1.76
2019-03-29T04:26:41.909Z,1.95
2019-03-29T04:29:08.564Z,2.00
2019-03-29T04:31:35.318Z,1.92
2019-03-29T04:34:01.960Z,1.87
2019-03-29T04:36:28.538Z,1.91
2019-03-29T04:38:55.124Z,1.67
2019-03-29T04:41:21.673Z,1.86
2019-03-29T04:43:48.372Z,1.93
2019-03-29T04:46:15.081Z,1.99
2019-03-29T04:48:41.935Z,1.96
2019-03-29T04:51:09.202Z,2.07
2019-03-29T04:53:36.067Z,2.00
2019-03-29T04:56:02.921Z,1.98
2019-03-29T04:58:30.934Z,2.19
2019-03-29T05:00:58.315Z,2.19
2019-03-29T05:03:25.026Z,2.09
2019-03-29T05:05:51.694Z,1.77
2019-03-29T05:08:18.315Z,1.89
2019-03-29T05:10:44.901Z,2.03
2019-03-29T05:13:11.491Z,1.99
2019-03-29T05:15:38.412Z,2.23
2019-03-29T05:18:05.203Z,2.39
2019-03-29T05:20:31.881Z,2.44
2019-03-29T05:22:58.701Z,2.48
2019-03-29T05:25:25.364Z,2.56
2019-03-29T05:27:51.982Z,2.98
2019-03-29T05:30:18.568Z,3.20
2019-03-29T05:32:45.139Z,2.86
2019-03-29T05:35:11.916Z,2.59
2019-03-29T05:37:38.502Z,2.67
2019-03-29T05:40:05.428Z,2.84
2019-03-29T05:42:32.154Z,3.10
2019-03-29T05:44:58.705Z,3.40
2019-03-29T05:47:25.311Z,3.71
2019-03-29T05:49:51.890Z,3.85
2019-03-29T05:52:18.449Z,3.87
2019-03-29T05:54:45.049Z,4.11
2019-03-29T05:57:11.596Z,4.41
2019-03-29T05:59:38.484Z,4.48
2019-03-29T06:02:05.291Z,4.62
2019-03-29T06:04:31.848Z,4.58
2019-03-29T06:06:58.500Z,4.47
2019-03-29T06:09:25.078Z,4.69
2019-03-29T06:11:51.767Z,4.60
2019-03-29T06:14:18.347Z,4.56
2019-03-29T06:16:44.918Z,4.64
2019-03-29T06:19:11.583Z,4.76
2019-03-29T06:21:38.282Z,5.06
2019-03-29T06:24:04.960Z,5.33
2019-03-29T06:26:31.542Z,5.65
2019-03-29T06:28:58.174Z,5.86
2019-03-29T06:31:25.079Z,6.05
2019-03-29T06:33:51.834Z,6.11
2019-03-29T06:36:21.479Z,6.34
2019-03-29T06:38:50.227Z,6.46
2019-03-29T06:41:16.787Z,6.37
2019-03-29T06:43:43.707Z,6.59
2019-03-29T06:46:10.276Z,6.46
2019-03-29T06:48:36.847Z,6.73
2019-03-29T06:51:03.567Z,6.90
2019-03-29T06:53:30.137Z,6.90
2019-03-29T06:55:59.339Z,7.06
2019-03-29T06:58:25.216Z,7.34
2019-03-29T07:00:51.908Z,7.33
2019-03-29T07:03:19.030Z,7.48
2019-03-29T07:05:45.869Z,7.71
2019-03-29T07:08:12.412Z,7.72
2019-03-29T07:10:39.218Z,7.58
2019-03-29T07:13:05.775Z,7.59
2019-03-29T07:15:32.448Z,8.03
2019-03-29T07:17:59.018Z,8.04
2019-03-29T07:20:25.584Z,8.23
2019-03-29T07:22:52.240Z,8.27
2019-03-29T07:25:18.784Z,8.19
2019-03-29T07:27:52.085Z,8.50
2019-03-29T07:30:15.526Z,8.69
2019-03-29T07:32:42.110Z,8.69
2019-03-29T07:35:08.994Z,8.65
2019-03-29T07:37:35.797Z,8.60
2019-03-29T07:40:03.550Z,8.53
2019-03-29T07:42:30.258Z,8.48
2019-03-29T07:44:57.324Z,8.38
2019-03-29T07:47:23.915Z,8.21
2019-03-29T07:49:50.583Z,8.35
2019-03-29T07:52:17.205Z,8.23
2019-03-29T07:54:43.883Z,8.16
2019-03-29T07:57:13.462Z,8.21
2019-03-29T07:59:42.069Z,8.35
2019-03-29T08:02:08.919Z,8.27
2019-03-29T08:04:35.668Z,8.22
2019-03-29T08:07:02.238Z,8.36
2019-03-29T08:09:28.785Z,8.57
2019-03-29T08:11:55.708Z,8.52
2019-03-29T08:14:22.374Z,8.28
2019-03-29T08:16:49.206Z,8.29
2019-03-29T08:19:15.844Z,8.54
2019-03-29T08:21:42.625Z,8.63
2019-03-29T08:24:09.299Z,8.73
2019-03-29T08:26:36.143Z,8.70
2019-03-29T08:29:03.253Z,8.78
2019-03-29T08:31:29.994Z,8.62
2019-03-29T08:33:56.643Z,8.63
2019-03-29T08:36:23.480Z,8.67
2019-03-29T08:38:50.238Z,8.61
2019-03-29T08:41:16.995Z,8.58
2019-03-29T08:43:43.853Z,8.69
2019-03-29T08:46:10.784Z,8.87
2019-03-29T08:48:37.591Z,9.05
2019-03-29T08:51:04.486Z,9.10
2019-03-29T08:53:31.164Z,9.11
2019-03-29T08:55:57.715Z,9.22
2019-03-29T08:58:24.302Z,9.04
2019-03-29T09:00:51.423Z,9.13
2019-03-29T09:03:18.302Z,9.33
2019-03-29T09:05:46.026Z,9.40
2019-03-29T09:08:13.639Z,9.08
2019-03-29T09:10:40.319Z,9.19
2019-03-29T09:13:07.006Z,9.14
2019-03-29T09:15:33.763Z,9.05
2019-03-29T09:18:00.378Z,9.40
2019-03-29T09:20:27.094Z,9.37
2019-03-29T09:22:53.740Z,9.43
2019-03-29T09:25:21.168Z,9.48
2019-03-29T09:27:49.486Z,9.31
2019-03-29T09:30:16.330Z,9.41
2019-03-29T09:32:43.220Z,9.24
2019-03-29T09:35:11.923Z,9.33
2019-03-29T09:37:38.689Z,9.54
2019-03-29T09:40:06.003Z,9.53
2019-03-29T09:42:32.850Z,9.71
2019-03-29T09:44:59.465Z,9.41
2019-03-29T09:47:26.085Z,9.40
2019-03-29T09:49:52.652Z,9.77
2019-03-29T09:52:20.793Z,9.85
2019-03-29T09:54:49.253Z,9.85
2019-03-29T09:57:15.988Z,9.74
2019-03-29T09:59:42.684Z,10.02
2019-03-29T10:02:09.440Z,9.99
2019-03-29T10:04:36.112Z,9.79
2019-03-29T10:07:02.810Z,9.70
2019-03-29T10:09:29.498Z,9.60
2019-03-29T10:11:57.198Z,10.01
2019-03-29T10:14:23.884Z,10.13
2019-03-29T10:16:50.620Z,10.40
2019-03-29T10:19:17.198Z,10.67
2019-03-29T10:21:43.784Z,10.69
2019-03-29T10:24:10.343Z,10.44
2019-03-29T10:26:36.943Z,10.53
2019-03-29T10:29:03.639Z,10.67
2019-03-29T10:31:32.541Z,10.64
2019-03-29T10:33:58.834Z,10.83
2019-03-29T10:36:25.641Z,11.04
2019-03-29T10:38:52.357Z,10.90
2019-03-29T10:41:22.631Z,10.83
2019-03-29T10:43:47.617Z,11.26
2019-03-29T10:46:14.237Z,11.32
2019-03-29T10:48:40.924Z,11.58
2019-03-29T10:51:08.743Z,11.60
2019-03-29T10:53:35.445Z,11.90
2019-03-29T10:56:02.665Z,11.98
2019-03-29T10:58:29.511Z,12.04
2019-03-29T11:00:56.049Z,11.99
2019-03-29T11:03:22.745Z,11.99
2019-03-29T11:05:49.338Z,12.30
2019-03-29T11:08:16.088Z,12.06
2019-03-29T11:10:43.875Z,12.27
2019-03-29T11:13:13.912Z,12.71
2019-03-29T11:15:39.279Z,12.76
2019-03-29T11:18:06.801Z,12.87
2019-03-29T11:20:33.626Z,12.64
2019-03-29T11:23:00.620Z,12.54
2019-03-29T11:25:27.174Z,12.86
2019-03-29T11:27:55.908Z,12.78
2019-03-29T11:30:22.675Z,12.70
2019-03-29T11:32:49.420Z,12.61
2019-03-29T11:35:16.158Z,12.44
2019-03-29T11:37:42.727Z,12.18
2019-03-29T11:40:11.528Z,12.22
2019-03-29T11:42:38.272Z,12.02
2019-03-29T11:45:05.264Z,12.09
2019-03-29T11:47:31.846Z,12.18
2019-03-29T11:49:58.632Z,12.21
2019-03-29T11:52:26.832Z,12.33
2019-03-29T11:54:53.436Z,12.11
2019-03-29T11:58:16.678Z,12.04
2019-03-29T12:00:44.248Z,12.39
2019-03-29T12:03:11.417Z,12.38
2019-03-29T12:05:38.286Z,12.09
2019-03-29T12:08:05.437Z,12.17
2019-03-29T12:10:32.611Z,12.16
2019-03-29T12:12:59.560Z,12.20
2019-03-29T12:15:29.424Z,12.18
2019-03-29T12:17:56.140Z,12.24
2019-03-29T12:20:24.454Z,12.22
2019-03-29T12:22:51.209Z,12.12
2019-03-29T12:25:18.185Z,12.08
2019-03-29T12:27:44.746Z,12.24
2019-03-29T12:30:23.693Z,12.10
2019-03-29T12:32:40.721Z,12.19
2019-03-29T12:35:10.069Z,12.08
2019-03-29T12:37:36.440Z,12.25
2019-03-29T12:40:06.133Z,12.36
2019-03-29T12:42:32.866Z,12.23
2019-03-29T12:44:59.469Z,12.12
2019-03-29T12:47:26.296Z,12.07
2019-03-29T12:49:52.896Z,12.28
2019-03-29T12:52:19.714Z,12.02
2019-03-29T12:54:46.333Z,11.99
2019-03-29T12:57:13.082Z,12.07
2019-03-29T12:59:39.659Z,12.26
2019-03-29T13:02:09.129Z,12.32
2019-03-29T13:04:36.015Z,12.26
2019-03-29T13:07:03.120Z,12.13
2019-03-29T13:09:29.674Z,12.39
2019-03-29T13:11:56.500Z,12.45
2019-03-29T13:14:23.136Z,12.26
2019-03-29T13:16:49.681Z,12.29
2019-03-29T13:19:16.269Z,12.28
2019-03-29T13:21:42.840Z,12.24
2019-03-29T13:24:09.529Z,12.23
2019-03-29T13:26:36.288Z,12.32
2019-03-29T13:29:03.479Z,12.39
2019-03-29T13:31:30.054Z,12.53
2019-03-29T13:33:56.631Z,12.46
2019-03-29T13:36:23.319Z,12.42
2019-03-29T13:38:49.989Z,12.55
2019-03-29T13:41:16.657Z,12.54
2019-03-29T13:43:43.263Z,12.47
2019-03-29T13:46:09.867Z,12.63
2019-03-29T13:48:36.501Z,12.91
2019-03-29T13:51:03.363Z,13.01
2019-03-29T13:53:30.107Z,12.71
2019-03-29T13:55:57.066Z,12.76
2019-03-29T13:58:23.703Z,12.66
2019-03-29T14:00:50.406Z,12.59
2019-03-29T14:03:17.044Z,12.52
2019-03-29T14:05:45.116Z,12.67
2019-03-29T14:08:12.094Z,12.65
2019-03-29T14:10:39.124Z,12.67
2019-03-29T14:13:06.055Z,12.42
2019-03-29T14:15:32.977Z,12.49
2019-03-29T14:17:59.705Z,12.69
2019-03-29T14:20:30.362Z,12.76
2019-03-29T14:22:59.682Z,12.43
2019-03-29T14:25:26.416Z,12.55
2019-03-29T14:27:53.132Z,12.58
2019-03-29T14:30:20.046Z,12.48
2019-03-29T14:32:46.638Z,12.45
2019-03-29T14:35:13.474Z,12.51
2019-03-29T14:37:40.208Z,12.43
2019-03-29T14:40:07.879Z,12.50
2019-03-29T14:42:35.207Z,12.65
2019-03-29T14:45:05.307Z,12.36
2019-03-29T14:47:41.198Z,12.36
2019-03-29T14:50:00.569Z,12.36
2019-03-29T14:52:27.162Z,12.36
2019-03-29T14:54:53.794Z,12.35
2019-03-29T14:57:20.354Z,12.13
2019-03-29T14:59:48.166Z,12.23
2019-03-29T15:02:15.044Z,12.22
2019-03-29T15:04:41.906Z,12.38
2019-03-29T15:07:08.763Z,12.29
2019-03-29T15:09:35.654Z,12.23
2019-03-29T15:12:02.346Z,12.21
2019-03-29T15:14:28.907Z,12.20
2019-03-29T15:16:55.583Z,12.28
2019-03-29T15:19:22.944Z,12.05
2019-03-29T15:21:50.705Z,12.18
2019-03-29T15:24:19.244Z,12.17
2019-03-29T15:26:46.508Z,12.25
2019-03-29T15:29:13.318Z,12.20
2019-03-29T15:31:39.955Z,12.04
2019-03-29T15:34:06.688Z,12.17
2019-03-29T15:36:33.325Z,12.16
2019-03-29T15:38:59.876Z,12.11
2019-03-29T15:41:26.575Z,12.08
2019-03-29T15:43:53.185Z,12.25
2019-03-29T15:46:22.390Z,12.35
2019-03-29T15:48:48.981Z,12.07
2019-03-29T15:51:15.635Z,11.94
2019-03-29T15:53:42.188Z,12.04
2019-03-29T15:56:08.830Z,12.14
2019-03-29T15:58:35.519Z,12.18
2019-03-29T16:01:02.796Z,12.00
2019-03-29T16:03:29.426Z,11.95
2019-03-29T16:05:56.142Z,12.04
2019-03-29T16:08:22.890Z,11.99
2019-03-29T16:10:49.569Z,12.09
2019-03-29T16:13:16.274Z,12.01
2019-03-29T16:15:42.994Z,12.02
2019-03-29T16:18:09.709Z,11.99
2019-03-29T16:20:36.641Z,11.90
2019-03-29T16:23:03.643Z,11.80
2019-03-29T16:25:30.352Z,11.97
2019-03-29T16:27:57.297Z,12.01
2019-03-29T16:30:24.108Z,11.84
2019-03-29T16:32:50.721Z,11.82
2019-03-29T16:35:17.507Z,11.80
2019-03-29T16:37:56.641Z,11.90
2019-03-29T16:40:13.064Z,11.82
2019-03-29T16:42:39.649Z,11.98
2019-03-29T16:45:07.992Z,12.01
2019-03-29T16:47:35.106Z,11.86
2019-03-29T16:50:05.702Z,11.78
2019-03-29T16:52:32.442Z,11.86
2019-03-29T16:55:11.951Z,11.90
2019-03-29T16:57:27.691Z,11.77
2019-03-29T16:59:54.369Z,11.81
2019-03-29T17:02:21.082Z,11.80
2019-03-29T17:04:47.635Z,11.60
2019-03-29T17:07:14.382Z,11.72
2019-03-29T17:09:41.706Z,11.85
2019-03-29T17:12:08.969Z,11.92
2019-03-29T17:14:39.572Z,11.86
2019-03-29T17:17:08.977Z,11.69
2019-03-29T17:19:37.591Z,11.59
2019-03-29T17:22:05.258Z,11.49
2019-03-29T17:24:32.587Z,11.52
2019-03-29T17:27:00.238Z,11.57
2019-03-29T17:29:27.110Z,11.63
2019-03-29T17:31:53.812Z,11.76
2019-03-29T17:34:20.673Z,11.52
2019-03-29T17:36:47.232Z,11.51
2019-03-29T17:39:15.070Z,11.51
2019-03-29T17:41:41.739Z,11.58
2019-03-29T17:44:08.381Z,11.58
2019-03-29T17:46:35.557Z,11.64
2019-03-29T17:49:02.399Z,11.55
2019-03-29T17:51:29.200Z,11.26
2019-03-29T17:53:56.471Z,11.23
2019-03-29T17:56:23.155Z,11.40
2019-03-29T17:58:49.936Z,11.43
2019-03-29T18:01:17.141Z,11.50
2019-03-29T18:03:44.023Z,11.61
2019-03-29T18:06:11.082Z,11.60
2019-03-29T18:08:38.848Z,11.45
2019-03-29T18:11:05.447Z,11.23
2019-03-29T18:13:32.393Z,11.27
2019-03-29T18:15:59.098Z,11.40
2019-03-29T18:18:26.419Z,11.43
2019-03-29T18:20:53.651Z,11.52
2019-03-29T18:23:20.377Z,11.28
2019-03-29T18:25:47.140Z,11.30
2019-03-29T18:28:14.252Z,11.47
2019-03-29T18:30:41.869Z,11.40
2019-03-29T18:33:12.736Z,11.40
2019-03-29T18:35:40.117Z,11.45
2019-03-29T18:38:07.730Z,11.39
2019-03-29T18:40:35.017Z,11.39
2019-03-29T18:43:02.045Z,11.11
2019-03-29T18:45:28.847Z,11.12
2019-03-29T18:47:55.458Z,11.26
2019-03-29T18:50:22.200Z,11.26
2019-03-29T18:52:49.148Z,11.13
2019-03-29T18:55:15.998Z,11.27
2019-03-29T18:57:42.586Z,11.07
2019-03-29T19:00:12.818Z,11.18
2019-03-29T19:02:40.119Z,11.17
2019-03-29T19:05:12.662Z,11.26
2019-03-29T19:07:39.594Z,11.14
2019-03-29T19:10:06.866Z,11.03
2019-03-29T19:12:33.883Z,11.13
2019-03-29T19:15:01.281Z,11.18
2019-03-29T19:17:29.394Z,11.15
2019-03-29T19:19:56.584Z,11.05
2019-03-29T19:23:19.541Z,11.08
2019-03-29T19:25:46.135Z,11.09
2019-03-29T19:28:12.938Z,10.90
2019-03-29T19:30:58.350Z,11.04
2019-03-29T19:33:25.289Z,11.11
2019-03-29T19:35:52.262Z,10.93
2019-03-29T19:38:18.867Z,10.83
2019-03-29T19:40:46.763Z,10.98
2019-03-29T19:43:13.613Z,10.97
2019-03-29T19:45:40.297Z,10.87
2019-03-29T19:48:08.818Z,10.99
2019-03-29T19:50:35.703Z,10.93
2019-03-29T19:53:02.655Z,10.94
2019-03-29T19:55:29.229Z,10.82
2019-03-29T19:57:55.965Z,10.90
2019-03-29T20:00:29.271Z,10.76
2019-03-29T20:02:56.127Z,10.68
2019-03-29T20:05:26.308Z,10.66
2019-03-29T20:07:55.694Z,10.80
2019-03-29T20:10:24.651Z,10.76
2019-03-29T20:12:51.872Z,10.67
2019-03-29T20:15:18.856Z,10.59
2019-03-29T20:17:45.497Z,10.53
2019-03-29T20:20:17.827Z,10.54
2019-03-29T20:22:45.523Z,10.51
2019-03-29T20:25:12.308Z,10.61
2019-03-29T20:27:38.935Z,10.37
2019-03-29T20:30:06.407Z,10.23
2019-03-29T20:32:36.449Z,10.27
2019-03-29T20:35:04.959Z,10.18
2019-03-29T20:37:33.751Z,10.32
2019-03-29T20:40:00.584Z,10.30
2019-03-29T20:42:29.638Z,10.18
2019-03-29T20:44:56.700Z,10.23
2019-03-29T20:47:23.408Z,10.12
2019-03-29T20:49:50.046Z,10.07
2019-03-29T20:52:16.603Z,10.04
2019-03-29T20:54:43.186Z,10.02
2019-03-29T20:57:09.789Z,9.83
2019-03-29T20:59:36.519Z,10.06
2019-03-29T21:02:06.249Z,9.93
2019-03-29T21:04:33.274Z,9.96
2019-03-29T21:07:00.134Z,9.96
2019-03-29T21:09:26.733Z,9.93
2019-03-29T21:11:53.460Z,9.89
2019-03-29T21:14:20.311Z,9.89
2019-03-29T21:16:47.352Z,9.85
2019-03-29T21:19:14.263Z,9.88
2019-03-29T21:21:41.090Z,9.70
2019-03-29T21:24:07.721Z,9.73
2019-03-29T21:26:34.545Z,9.74
2019-03-29T21:29:01.606Z,9.73
2019-03-29T21:31:28.354Z,9.82
2019-03-29T21:33:54.966Z,9.78
2019-03-29T21:36:21.523Z,9.77
2019-03-29T21:38:48.110Z,9.69
2019-03-29T21:41:14.890Z,9.73
2019-03-29T21:43:41.458Z,9.74
2019-03-29T21:46:08.118Z,9.72
2019-03-29T21:48:34.813Z,9.76
2019-03-29T21:51:01.396Z,9.57
2019-03-29T21:53:29.308Z,9.70
2019-03-29T21:55:56.032Z,9.62
2019-03-29T21:58:22.863Z,9.60
2019-03-29T22:00:49.447Z,9.55
2019-03-29T22:03:16.196Z,9.57
2019-03-29T22:05:42.867Z,9.46
2019-03-29T22:08:09.769Z,9.54
2019-03-29T22:10:36.627Z,9.49
2019-03-29T22:13:03.555Z,9.43
2019-03-29T22:15:31.628Z,9.32
2019-03-29T22:17:58.506Z,9.41
2019-03-29T22:20:25.382Z,9.23
2019-03-29T22:22:51.999Z,9.23
2019-03-29T22:25:18.798Z,9.22
2019-03-29T22:27:45.608Z,9.23
2019-03-29T22:30:13.120Z,9.17
2019-03-29T22:32:39.819Z,9.21
2019-03-29T22:35:06.976Z,9.22
2019-03-29T22:37:34.015Z,9.18
2019-03-29T22:40:00.859Z,9.07
2019-03-29T22:42:27.859Z,8.79
2019-03-29T22:44:54.404Z,8.47
2019-03-29T22:47:21.030Z,8.06
2019-03-29T22:49:47.871Z,8.22
2019-03-29T22:52:14.424Z,8.14
2019-03-29T22:54:41.345Z,8.11
2019-03-29T22:57:08.239Z,8.51
2019-03-29T22:59:35.089Z,8.80
2019-03-29T23:02:02.197Z,8.96
2019-03-29T23:04:28.775Z,8.93
2019-03-29T23:06:55.368Z,8.83
2019-03-29T23:09:21.963Z,8.42
2019-03-29T23:11:48.650Z,8.16
2019-03-29T23:14:15.333Z,8.58
2019-03-29T23:16:44.708Z,8.66
2019-03-29T23:19:13.220Z,8.76
2019-03-29T23:21:39.871Z,8.83
2019-03-29T23:24:06.432Z,8.97
2019-03-29T23:26:34.243Z,9.13
2019-03-29T23:29:00.937Z,9.06
2019-03-29T23:31:27.547Z,9.03
2019-03-29T23:33:54.205Z,8.96
2019-03-29T23:36:21.033Z,8.94
2019-03-29T23:38:47.634Z,8.99
2019-03-29T23:41:14.278Z,8.79
2019-03-29T23:43:40.931Z,8.70
2019-03-29T23:46:07.562Z,8.28
2019-03-29T23:48:34.132Z,8.13
2019-03-29T23:51:00.713Z,7.68
2019-03-29T23:53:27.503Z,7.33
2019-03-29T23:55:54.324Z,7.39
2019-03-29T23:58:23.392Z,7.26
